createdAt,value
2019-04-25T00:00:39.056Z,0.78
2019-04-25T00:03:07.927Z,0.80
2019-04-25T00:05:36.298Z,0.80
2019-04-25T00:08:05.440Z,0.72
2019-04-25T00:10:33.616Z,0.90
2019-04-25T00:13:03.621Z,0.82
2019-04-25T00:15:31.997Z,0.93
2019-04-25T00:18:00.158Z,1.40
2019-04-25T00:20:29.214Z,1.00
2019-04-25T00:23:17.027Z,1.12
2019-04-25T00:25:49.559Z,0.90
2019-04-25T00:28:18.655Z,0.90
2019-04-25T00:30:47.979Z,0.80
2019-04-25T00:33:16.192Z,1.10
2019-04-25T00:35:44.866Z,0.98
2019-04-25T00:38:14.114Z,0.85
2019-04-25T00:40:43.492Z,0.90
2019-04-25T00:43:12.146Z,0.70
2019-04-25T00:45:42.398Z,0.93
2019-04-25T00:48:10.223Z,0.90
2019-04-25T00:50:38.439Z,1.00
2019-04-25T00:53:06.607Z,1.00
2019-04-25T00:55:34.795Z,0.70
2019-04-25T00:58:04.652Z,0.70
2019-04-25T01:00:41.578Z,0.80
2019-04-25T01:03:11.688Z,0.98
2019-04-25T01:05:39.837Z,0.85
2019-04-25T01:08:08.037Z,0.90
2019-04-25T01:10:36.258Z,0.80
2019-04-25T01:13:05.042Z,0.70
2019-04-25T01:15:33.251Z,0.78
2019-04-25T01:18:01.725Z,1.17
2019-04-25T01:20:29.900Z,1.00
2019-04-25T01:23:00.790Z,0.72
2019-04-25T01:25:38.561Z,0.90
2019-04-25T01:27:57.970Z,0.90
2019-04-25T01:30:27.816Z,0.95
2019-04-25T01:32:56.722Z,1.00
2019-04-25T01:35:29.073Z,0.80
2019-04-25T01:37:58.937Z,0.98
2019-04-25T01:40:45.296Z,1.15
2019-04-25T01:43:23.683Z,1.00
2019-04-25T01:45:53.798Z,1.05
2019-04-25T01:48:23.463Z,0.95
2019-04-25T01:50:53.899Z,0.95
2019-04-25T01:53:21.865Z,1.10
2019-04-25T01:55:55.883Z,1.37
2019-04-25T01:58:20.755Z,1.17
2019-04-25T02:00:52.078Z,0.80
2019-04-25T02:03:21.083Z,0.80
2019-04-25T02:05:49.354Z,0.93
2019-04-25T02:08:17.643Z,0.98
2019-04-25T02:10:47.495Z,0.90
2019-04-25T02:13:17.371Z,0.90
2019-04-25T02:15:45.834Z,0.90
2019-04-25T02:18:14.051Z,1.02
2019-04-25T02:20:43.681Z,1.30
2019-04-25T02:23:11.921Z,1.20
2019-04-25T02:25:40.499Z,0.90
2019-04-25T02:28:08.749Z,0.70
2019-04-25T02:30:36.955Z,0.98
2019-04-25T02:33:08.925Z,0.90
2019-04-25T02:35:35.140Z,1.02
2019-04-25T02:38:08.508Z,1.17
2019-04-25T02:40:33.912Z,1.22
2019-04-25T02:43:06.592Z,1.40
2019-04-25T02:45:34.460Z,1.10
2019-04-25T02:48:20.909Z,1.00
2019-04-25T02:51:08.602Z,1.15
2019-04-25T02:53:50.421Z,0.90
2019-04-25T02:56:30.602Z,0.75
2019-04-25T02:58:49.019Z,0.82
2019-04-25T03:01:22.673Z,0.90
2019-04-25T03:03:48.363Z,1.00
2019-04-25T03:06:16.591Z,0.72
2019-04-25T03:08:45.141Z,1.20
2019-04-25T03:11:15.014Z,0.95
2019-04-25T03:13:44.088Z,0.90
2019-04-25T03:16:13.949Z,1.02
2019-04-25T03:18:44.698Z,1.05
2019-04-25T03:21:20.369Z,0.93
2019-04-25T03:23:49.790Z,1.00
2019-04-25T03:26:17.928Z,1.27
2019-04-25T03:28:46.152Z,1.12
2019-04-25T03:31:21.776Z,0.90
2019-04-25T03:33:45.780Z,1.20
2019-04-25T03:36:16.830Z,0.90
2019-04-25T03:38:44.240Z,0.85
2019-04-25T03:41:14.360Z,1.07
2019-04-25T03:43:44.137Z,0.80
2019-04-25T03:46:14.104Z,1.00
2019-04-25T03:48:43.969Z,0.98
2019-04-25T03:51:15.674Z,0.93
2019-04-25T03:53:44.296Z,1.02
2019-04-25T03:56:14.219Z,0.98
2019-04-25T03:58:43.907Z,1.00
2019-04-25T04:01:13.179Z,1.15
2019-04-25T04:03:43.982Z,1.20
2019-04-25T04:06:14.240Z,1.22
2019-04-25T04:08:44.107Z,1.60
2019-04-25T04:11:14.169Z,1.30
2019-04-25T04:13:43.815Z,1.27
2019-04-25T04:16:14.298Z,1.42
2019-04-25T04:18:44.283Z,2.87
2019-04-25T04:21:17.417Z,1.55
2019-04-25T04:23:47.370Z,1.15
2019-04-25T04:26:15.718Z,1.52
2019-04-25T04:28:43.905Z,2.02
2019-04-25T04:31:14.009Z,1.65
2019-04-25T04:33:43.121Z,1.50
2019-04-25T04:36:11.718Z,1.32
2019-04-25T04:38:39.897Z,1.62
2019-04-25T04:41:08.115Z,2.17
2019-04-25T04:43:36.274Z,1.85
2019-04-25T04:46:04.487Z,1.70
2019-04-25T04:48:34.097Z,2.20
2019-04-25T04:51:03.435Z,2.45
2019-04-25T04:53:33.870Z,1.95
2019-04-25T04:56:01.951Z,2.20
2019-04-25T04:58:30.141Z,2.10
2019-04-25T05:00:58.702Z,2.50
2019-04-25T05:03:40.815Z,2.67
2019-04-25T05:06:10.958Z,2.25
2019-04-25T05:08:40.856Z,2.60
2019-04-25T05:11:09.428Z,2.40
2019-04-25T05:13:37.600Z,2.37
2019-04-25T05:16:05.799Z,2.60
2019-04-25T05:18:39.801Z,2.87
2019-04-25T05:21:04.279Z,3.17
2019-04-25T05:23:34.250Z,3.83
2019-04-25T05:26:04.369Z,3.00
2019-04-25T05:28:33.352Z,2.65
2019-04-25T05:31:06.221Z,2.90
2019-04-25T05:33:34.770Z,2.75
2019-04-25T05:36:04.001Z,3.58
2019-04-25T05:38:33.468Z,3.60
2019-04-25T05:41:05.996Z,3.55
2019-04-25T05:43:34.362Z,4.40
2019-04-25T05:46:03.413Z,3.42
2019-04-25T05:48:32.003Z,3.70
2019-04-25T05:51:00.191Z,3.12
2019-04-25T05:53:28.770Z,3.50
2019-04-25T05:55:57.245Z,2.67
2019-04-25T05:58:25.919Z,3.87
2019-04-25T06:00:55.699Z,3.12
2019-04-25T06:03:25.375Z,3.10
2019-04-25T06:05:53.835Z,3.05
2019-04-25T06:08:25.539Z,2.47
2019-04-25T06:11:01.500Z,2.72
2019-04-25T06:13:34.296Z,2.67
2019-04-25T06:16:04.113Z,2.45
2019-04-25T06:18:33.971Z,2.85
2019-04-25T06:21:03.116Z,2.37
2019-04-25T06:23:49.401Z,2.50
2019-04-25T06:26:26.461Z,2.10
2019-04-25T06:28:53.601Z,2.37
2019-04-25T06:31:19.722Z,2.47
2019-04-25T06:33:48.281Z,2.42
2019-04-25T06:36:16.557Z,3.02
2019-04-25T06:38:44.782Z,2.27
2019-04-25T06:41:13.484Z,2.60
2019-04-25T06:43:44.261Z,2.90
2019-04-25T06:46:30.360Z,3.17
2019-04-25T06:49:03.573Z,2.47
2019-04-25T06:51:51.097Z,2.30
2019-04-25T06:54:19.799Z,3.00
2019-04-25T06:56:48.274Z,2.77
2019-04-25T06:59:16.485Z,2.95
2019-04-25T07:01:45.022Z,3.37
2019-04-25T07:04:14.073Z,3.00
2019-04-25T07:06:43.562Z,2.77
2019-04-25T07:09:12.594Z,2.70
2019-04-25T07:11:40.765Z,2.50
2019-04-25T07:14:09.291Z,2.45
2019-04-25T07:16:37.481Z,2.62
2019-04-25T07:19:05.711Z,2.77
2019-04-25T07:21:34.648Z,1.87
2019-04-25T07:24:04.210Z,2.02
2019-04-25T07:26:50.828Z,2.50
2019-04-25T07:29:25.631Z,2.65
2019-04-25T07:31:55.356Z,2.20
2019-04-25T07:34:28.880Z,1.40
2019-04-25T07:36:57.354Z,1.20
2019-04-25T07:39:25.836Z,1.35
2019-04-25T07:41:54.744Z,1.10
2019-04-25T07:44:36.640Z,1.15
2019-04-25T07:46:54.244Z,1.10
2019-04-25T07:49:23.463Z,1.10
2019-04-25T07:51:53.556Z,1.30
2019-04-25T07:54:23.995Z,1.50
2019-04-25T07:56:54.803Z,1.12
2019-04-25T07:59:23.740Z,1.00
2019-04-25T08:01:53.551Z,1.10
2019-04-25T08:04:23.465Z,1.25
2019-04-25T08:06:51.906Z,1.40
2019-04-25T08:09:20.089Z,1.05
2019-04-25T08:11:48.293Z,1.50
2019-04-25T08:14:21.380Z,1.65
2019-04-25T08:16:54.026Z,1.27
2019-04-25T08:19:23.598Z,1.10
2019-04-25T08:21:53.651Z,1.12
2019-04-25T08:24:22.048Z,1.00
2019-04-25T08:26:50.246Z,1.02
2019-04-25T08:29:18.829Z,1.10
2019-04-25T08:31:47.040Z,1.20
2019-04-25T08:34:15.252Z,1.10
2019-04-25T08:36:45.393Z,1.15
2019-04-25T08:39:14.532Z,0.80
2019-04-25T08:41:45.420Z,0.57
2019-04-25T08:44:14.166Z,0.70
2019-04-25T08:46:44.203Z,0.50
2019-04-25T08:49:16.922Z,0.70
2019-04-25T08:51:45.881Z,0.40
2019-04-25T08:54:34.358Z,0.30
2019-04-25T08:57:04.424Z,0.40
2019-04-25T08:59:42.405Z,0.45
2019-04-25T09:02:11.350Z,0.70
2019-04-25T09:04:47.198Z,0.47
2019-04-25T09:07:15.566Z,0.50
2019-04-25T09:09:45.112Z,0.40
2019-04-25T09:12:14.040Z,0.50
2019-04-25T09:14:44.752Z,0.70
2019-04-25T09:17:14.257Z,0.68
2019-04-25T09:19:44.130Z,2.10
2019-04-25T09:22:13.245Z,1.80
2019-04-25T09:24:42.106Z,1.55
2019-04-25T09:27:10.293Z,1.20
2019-04-25T09:29:38.967Z,1.20
2019-04-25T09:32:07.167Z,1.00
2019-04-25T09:34:35.578Z,1.10
2019-04-25T09:37:03.776Z,0.75
2019-04-25T09:39:34.781Z,0.90
2019-04-25T09:42:04.409Z,0.53
2019-04-25T09:44:38.404Z,0.80
2019-04-25T09:47:07.575Z,0.68
2019-04-25T09:49:40.247Z,1.00
2019-04-25T09:52:10.386Z,0.80
2019-04-25T09:54:53.516Z,0.40
2019-04-25T09:57:43.377Z,0.30
2019-04-25T10:00:13.754Z,0.10
2019-04-25T10:02:42.300Z,0.23
2019-04-25T10:05:10.802Z,0.20
2019-04-25T10:07:38.998Z,0.40
2019-04-25T10:10:07.555Z,0.30
2019-04-25T10:12:37.260Z,0.20
2019-04-25T10:15:24.268Z,0.20
2019-04-25T10:17:52.550Z,0.20
2019-04-25T10:20:20.757Z,0.17
2019-04-25T10:22:49.324Z,0.13
2019-04-25T10:25:17.518Z,0.20
2019-04-25T10:27:48.842Z,0.20
2019-04-25T10:30:21.583Z,0.30
2019-04-25T10:32:48.058Z,0.23
2019-04-25T10:35:16.204Z,0.20
2019-04-25T10:37:45.610Z,0.20
2019-04-25T10:40:14.854Z,0.23
2019-04-25T10:42:46.475Z,0.28
2019-04-25T10:45:21.249Z,0.30
2019-04-25T10:47:44.214Z,0.30
2019-04-25T10:50:13.502Z,0.20
2019-04-25T10:52:41.782Z,0.20
2019-04-25T10:55:09.974Z,0.30
2019-04-25T10:57:38.187Z,0.80
2019-04-25T11:00:19.804Z,0.20
2019-04-25T11:02:47.993Z,0.30
2019-04-25T11:05:17.393Z,0.28
2019-04-25T11:07:46.539Z,0.25
2019-04-25T11:10:14.782Z,0.30
2019-04-25T11:12:44.331Z,0.17
2019-04-25T11:15:14.341Z,0.30
2019-04-25T11:17:45.164Z,0.23
2019-04-25T11:20:29.828Z,0.23
2019-04-25T11:22:58.050Z,0.20
2019-04-25T11:25:26.244Z,0.20
2019-04-25T11:27:55.272Z,0.40
2019-04-25T11:30:25.201Z,0.20
2019-04-25T11:32:54.607Z,0.20
2019-04-25T11:35:24.169Z,0.28
2019-04-25T11:37:54.929Z,0.30
2019-04-25T11:40:30.561Z,0.30
2019-04-25T11:42:58.767Z,0.30
2019-04-25T11:45:26.939Z,0.40
2019-04-25T11:47:55.499Z,0.30
2019-04-25T11:50:23.748Z,0.30
2019-04-25T11:52:53.105Z,0.20
2019-04-25T11:55:23.764Z,0.20
2019-04-25T11:57:53.179Z,0.30
2019-04-25T12:00:24.573Z,0.30
2019-04-25T12:02:54.598Z,0.42
2019-04-25T12:05:23.640Z,0.60
2019-04-25T12:07:53.041Z,0.50
2019-04-25T12:10:24.254Z,0.40
2019-04-25T12:12:53.699Z,0.33
2019-04-25T12:15:23.944Z,1.75
2019-04-25T12:17:52.339Z,0.50
2019-04-25T12:20:20.518Z,0.33
2019-04-25T12:22:48.976Z,0.40
2019-04-25T12:25:17.361Z,0.30
2019-04-25T12:27:48.623Z,0.40
2019-04-25T12:30:15.563Z,0.50
2019-04-25T12:32:44.160Z,0.42
2019-04-25T12:35:14.124Z,0.50
2019-04-25T12:37:44.121Z,0.55
2019-04-25T12:40:14.111Z,0.50
2019-04-25T12:42:44.359Z,0.57
2019-04-25T12:45:25.870Z,0.42
2019-04-25T12:47:58.872Z,0.50
2019-04-25T12:50:26.531Z,0.65
2019-04-25T12:52:56.062Z,0.50
2019-04-25T12:55:24.303Z,0.40
2019-04-25T12:57:54.878Z,0.50
2019-04-25T13:00:24.506Z,0.35
2019-04-25T13:02:53.945Z,0.40
2019-04-25T13:05:22.262Z,0.35
2019-04-25T13:07:51.473Z,0.70
2019-04-25T13:10:20.502Z,0.60
2019-04-25T13:12:48.710Z,0.80
2019-04-25T13:15:17.699Z,0.82
2019-04-25T13:17:46.003Z,0.70
2019-04-25T13:20:14.189Z,0.37
2019-04-25T13:22:43.248Z,0.40
2019-04-25T13:25:14.295Z,0.40
2019-04-25T13:27:46.934Z,0.65
2019-04-25T13:30:25.831Z,0.60
2019-04-25T13:32:56.524Z,0.50
2019-04-25T13:35:26.863Z,0.57
2019-04-25T13:37:55.059Z,0.60
2019-04-25T13:40:23.747Z,0.80
2019-04-25T13:42:53.182Z,1.57
2019-04-25T13:45:21.558Z,0.55
2019-04-25T13:47:49.773Z,0.35
2019-04-25T13:50:17.992Z,0.45
2019-04-25T13:52:46.506Z,0.50
2019-04-25T13:55:15.003Z,0.60
2019-04-25T13:57:43.484Z,0.62
2019-04-25T14:00:11.697Z,0.70
2019-04-25T14:02:39.972Z,0.60
2019-04-25T14:05:08.496Z,0.50
2019-04-25T14:07:36.712Z,0.45
2019-04-25T14:10:06.087Z,0.40
2019-04-25T14:12:34.282Z,0.57
2019-04-25T14:15:03.910Z,0.68
2019-04-25T14:17:40.262Z,0.68
2019-04-25T14:20:22.851Z,0.70
2019-04-25T14:22:53.651Z,0.53
2019-04-25T14:50:54.506Z,1.12
2019-04-25T14:53:23.353Z,0.93
2019-04-25T14:56:00.015Z,1.00
2019-04-25T14:58:30.360Z,0.70
2019-04-25T15:00:59.028Z,0.90
2019-04-25T15:03:27.220Z,0.60
2019-04-25T15:05:55.513Z,0.98
2019-04-25T15:08:24.935Z,0.75
2019-04-25T15:10:53.184Z,0.90
2019-04-25T15:13:21.565Z,0.88
2019-04-25T15:15:49.791Z,1.20
2019-04-25T15:18:18.359Z,0.82
2019-04-25T15:20:46.546Z,0.98
2019-04-25T15:23:14.738Z,0.90
2019-04-25T15:25:43.272Z,1.17
2019-04-25T15:28:11.480Z,1.15
2019-04-25T15:30:40.369Z,0.90
2019-04-25T15:33:09.000Z,1.02
2019-04-25T15:35:51.148Z,0.70
2019-04-25T15:38:24.682Z,1.40
2019-04-25T15:41:00.254Z,1.42
2019-04-25T15:43:30.100Z,1.67
2019-04-25T15:46:03.974Z,1.10
2019-04-25T15:48:33.179Z,0.85
2019-04-25T15:51:01.490Z,1.10
2019-04-25T15:53:30.666Z,0.80
2019-04-25T15:55:59.152Z,0.90
2019-04-25T15:58:27.648Z,0.90
2019-04-25T16:00:56.320Z,1.07
2019-04-25T16:03:24.498Z,1.10
2019-04-25T16:05:52.698Z,1.00
2019-04-25T16:08:20.888Z,1.20
2019-04-25T16:10:49.098Z,1.17
2019-04-25T16:13:17.344Z,0.90
2019-04-25T16:15:45.545Z,1.10
2019-04-25T16:18:14.018Z,0.90
2019-04-25T16:20:42.222Z,1.00
2019-04-25T16:23:10.679Z,1.20
2019-04-25T16:25:38.888Z,1.00
2019-04-25T16:28:07.066Z,1.05
2019-04-25T16:30:35.278Z,1.17
2019-04-25T16:33:04.342Z,1.22
2019-04-25T16:35:33.426Z,1.27
2019-04-25T16:38:01.697Z,1.30
2019-04-25T16:40:29.960Z,1.20
2019-04-25T16:42:59.790Z,1.22
2019-04-25T16:45:28.962Z,1.12
2019-04-25T16:47:58.174Z,1.25
2019-04-25T16:50:27.619Z,1.10
2019-04-25T16:52:55.848Z,1.10
2019-04-25T16:55:24.321Z,1.52
2019-04-25T16:57:52.852Z,1.50
2019-04-25T17:00:40.889Z,1.35
2019-04-25T17:03:09.148Z,1.10
2019-04-25T17:05:37.501Z,0.90
2019-04-25T17:08:05.999Z,1.20
2019-04-25T17:10:34.782Z,1.50
2019-04-25T17:13:03.414Z,0.90
2019-04-25T17:15:34.167Z,1.17
2019-04-25T17:18:06.760Z,1.00
2019-04-25T17:20:36.784Z,1.27
2019-04-25T17:23:05.408Z,0.90
2019-04-25T17:25:34.670Z,1.27
2019-04-25T17:28:02.913Z,0.90
2019-04-25T17:30:33.013Z,0.93
2019-04-25T17:33:02.876Z,1.37
2019-04-25T17:35:33.571Z,0.90
2019-04-25T17:38:03.504Z,1.17
2019-04-25T17:40:33.885Z,1.22
2019-04-25T17:43:10.959Z,0.90
2019-04-25T17:45:34.775Z,1.20
2019-04-25T17:48:03.060Z,1.22
2019-04-25T17:50:31.921Z,1.10
2019-04-25T17:53:01.064Z,1.00
2019-04-25T17:55:29.266Z,1.10
2019-04-25T17:57:57.791Z,1.02
2019-04-25T18:00:33.927Z,1.20
2019-04-25T18:03:02.429Z,1.70
2019-04-25T18:05:30.640Z,1.57
2019-04-25T18:07:58.915Z,1.60
2019-04-25T18:10:27.786Z,2.77
2019-04-25T18:12:56.151Z,2.58
2019-04-25T18:15:26.020Z,2.62
2019-04-25T18:17:54.224Z,1.92
2019-04-25T18:20:24.111Z,1.87
2019-04-25T18:22:53.926Z,1.67
2019-04-25T18:25:40.985Z,1.82
2019-04-25T18:28:25.806Z,1.92
2019-04-25T18:30:55.056Z,2.95
2019-04-25T18:33:25.185Z,3.55
2019-04-25T18:36:01.235Z,3.47
2019-04-25T18:38:31.073Z,2.83
2019-04-25T18:41:03.676Z,2.77
2019-04-25T18:43:33.867Z,2.80
2019-04-25T18:46:10.017Z,1.90
2019-04-25T18:48:38.395Z,2.00
2019-04-25T18:51:06.579Z,1.80
2019-04-25T18:53:37.703Z,1.67
2019-04-25T18:56:23.702Z,1.60
2019-04-25T18:59:09.892Z,2.15
2019-04-25T19:01:52.293Z,2.00
2019-04-25T19:04:22.135Z,1.70
2019-04-25T19:06:56.662Z,1.70
2019-04-25T19:09:20.449Z,1.50
2019-04-25T19:11:48.976Z,1.42
2019-04-25T19:14:17.688Z,1.90
2019-04-25T19:16:45.895Z,1.60
2019-04-25T19:19:14.445Z,1.35
2019-04-25T19:21:43.506Z,1.70
2019-04-25T19:24:11.700Z,1.82
2019-04-25T19:26:42.264Z,1.45
2019-04-25T19:29:10.930Z,1.70
2019-04-25T19:31:39.847Z,1.50
2019-04-25T19:34:09.025Z,1.70
2019-04-25T19:36:37.248Z,1.57
2019-04-25T19:39:06.226Z,1.55
2019-04-25T19:41:36.091Z,1.50
2019-04-25T19:44:06.033Z,1.40
2019-04-25T19:46:45.003Z,1.27
2019-04-25T19:49:13.214Z,1.35
2019-04-25T19:51:41.776Z,1.55
2019-04-25T19:54:10.070Z,2.00
2019-04-25T19:56:38.567Z,1.35
2019-04-25T19:59:06.778Z,2.52
2019-04-25T20:01:34.994Z,1.40
2019-04-25T20:04:04.920Z,1.25
2019-04-25T20:06:40.492Z,1.20
2019-04-25T20:12:13.153Z,1.27
2019-04-25T20:14:41.533Z,1.20
2019-04-25T20:17:10.093Z,1.00
2019-04-25T20:19:38.320Z,1.17
2019-04-25T20:22:06.680Z,1.12
2019-04-25T20:24:37.493Z,1.17
2019-04-25T20:27:06.279Z,1.30
2019-04-25T20:29:34.447Z,1.35
2019-04-25T20:32:02.963Z,1.05
2019-04-25T20:34:31.308Z,1.32
2019-04-25T20:36:59.483Z,1.20
2019-04-25T20:39:27.911Z,1.25
2019-04-25T20:41:56.849Z,1.00
2019-04-25T20:44:25.493Z,1.02
2019-04-25T20:46:54.770Z,1.10
2019-04-25T20:49:23.037Z,1.12
2019-04-25T20:51:51.399Z,1.55
2019-04-25T20:54:19.911Z,1.40
2019-04-25T20:56:49.118Z,1.75
2019-04-25T20:59:17.424Z,1.60
2019-04-25T21:01:45.880Z,1.80
2019-04-25T21:04:31.965Z,2.05
2019-04-25T21:07:01.210Z,3.12
2019-04-25T21:09:29.768Z,2.70
2019-04-25T21:11:58.109Z,3.33
2019-04-25T21:14:27.976Z,2.55
2019-04-25T21:16:58.586Z,2.90
2019-04-25T21:19:28.373Z,1.60
2019-04-25T21:21:56.597Z,1.37
2019-04-25T21:24:24.800Z,1.40
2019-04-25T21:26:53.418Z,1.82
2019-04-25T21:29:21.603Z,1.55
2019-04-25T21:31:51.165Z,1.92
2019-04-25T21:34:25.953Z,1.47
2019-04-25T21:36:50.095Z,1.60
2019-04-25T21:39:23.769Z,1.72
2019-04-25T21:41:53.943Z,1.80
2019-04-25T21:44:23.137Z,1.55
2019-04-25T21:46:52.186Z,1.70
2019-04-25T21:49:21.499Z,1.42
2019-04-25T21:51:49.791Z,1.37
2019-04-25T21:54:18.290Z,1.25
2019-04-25T21:56:46.786Z,1.27
2019-04-25T21:59:15.578Z,1.02
2019-04-25T22:01:44.258Z,1.20
2019-04-25T22:04:12.458Z,1.20
2019-04-25T22:06:40.950Z,1.00
2019-04-25T22:09:11.610Z,1.45
2019-04-25T22:11:39.825Z,1.20
2019-04-25T22:14:08.435Z,1.30
2019-04-25T22:16:37.186Z,1.20
2019-04-25T22:19:06.358Z,1.70
2019-04-25T22:21:38.129Z,1.60
2019-04-25T22:24:11.065Z,1.02
2019-04-25T22:26:35.227Z,1.10
2019-04-25T22:29:03.640Z,1.20
2019-04-25T22:31:33.480Z,1.52
2019-04-25T22:34:03.807Z,1.35
2019-04-25T22:36:32.675Z,1.30
2019-04-25T22:39:11.179Z,1.20
2019-04-25T22:41:41.736Z,1.30
2019-04-25T22:44:12.205Z,1.47
2019-04-25T22:46:40.584Z,1.32
2019-04-25T22:49:08.761Z,1.25
2019-04-25T22:51:36.932Z,1.40
2019-04-25T22:54:05.560Z,1.20
2019-04-25T22:56:33.727Z,1.27
2019-04-25T22:59:02.935Z,1.20
2019-04-25T23:01:39.157Z,1.15
2019-04-25T23:04:09.470Z,1.37
2019-04-25T23:06:37.823Z,1.27
2019-04-25T23:09:08.148Z,1.10
2019-04-25T23:11:36.382Z,1.07
2019-04-25T23:14:05.146Z,1.17
2019-04-25T23:16:33.593Z,1.30
2019-04-25T23:19:02.925Z,1.50
2019-04-25T23:21:32.034Z,1.30
2019-04-25T23:24:00.225Z,0.90
2019-04-25T23:26:30.031Z,1.22
2019-04-25T23:28:59.865Z,1.60
2019-04-25T23:31:32.641Z,1.80
2019-04-25T23:34:01.106Z,1.60
2019-04-25T23:36:29.572Z,1.90
2019-04-25T23:38:58.047Z,1.70
2019-04-25T23:41:26.400Z,1.77
2019-04-25T23:43:54.989Z,1.50
2019-04-25T23:46:23.569Z,1.60
2019-04-25T23:48:51.748Z,1.77
2019-04-25T23:51:19.924Z,1.80
2019-04-25T23:53:48.488Z,1.35
2019-04-25T23:56:17.334Z,1.67
2019-04-25T23:58:45.810Z,2.58
